sensor_id;sensor_type;location;lat;lon;timestamp;pressure;altitude;pressure_sealevel;temperature;humidity
32109;BME280;18624;50.042;8.436;2023-02-20T00:02:08;101569.88;;;8.47;100.00
32109;BME280;18624;50.042;8.436;2023-02-20T00:04:34;101565.19;;;8.44;100.00
32109;BME280;18624;50.042;8.436;2023-02-20T00:07:00;101553.06;;;8.42;100.00
32109;BME280;18624;50.042;8.436;2023-02-20T00:09:27;101554.63;;;8.39;100.00
32109;BME280;18624;50.042;8.436;2023-02-20T00:11:54;101558.91;;;8.36;100.00
32109;BME280;18624;50.042;8.436;2023-02-20T00:14:20;101554.97;;;8.34;100.00
32109;BME280;18624;50.042;8.436;2023-02-20T00:16:46;101560.78;;;8.32;100.00
32109;BME280;18624;50.042;8.436;2023-02-20T00:19:13;101555.72;;;8.27;100.00
32109;BME280;18624;50.042;8.436;2023-02-20T00:21:44;101565.84;;;8.27;100.00
32109;BME280;18624;50.042;8.436;2023-02-20T00:24:12;101555.31;;;8.25;100.00
32109;BME280;18624;50.042;8.436;2023-02-20T00:26:44;101556.47;;;8.21;100.00
32109;BME280;18624;50.042;8.436;2023-02-20T00:29:14;101558.34;;;8.09;100.00
32109;BME280;18624;50.042;8.436;2023-02-20T00:31:40;101554.81;;;7.98;100.00
32109;BME280;18624;50.042;8.436;2023-02-20T00:34:07;101554.38;;;7.93;100.00
32109;BME280;18624;50.042;8.436;2023-02-20T00:36:33;101549.28;;;7.91;100.00
32109;BME280;18624;50.042;8.436;2023-02-20T00:39:00;101558.66;;;7.90;100.00
32109;BME280;18624;50.042;8.436;2023-02-20T00:41:26;101549.25;;;7.87;100.00
32109;BME280;18624;50.042;8.436;2023-02-20T00:43:53;101551.63;;;7.89;100.00
32109;BME280;18624;50.042;8.436;2023-02-20T00:46:19;101433.44;;;7.12;100.00
32109;BME280;18624;50.042;8.436;2023-02-20T00:48:47;101550.84;;;7.92;100.00
32109;BME280;18624;50.042;8.436;2023-02-20T00:51:34;101558.69;;;7.94;100.00
32109;BME280;18624;50.042;8.436;2023-02-20T00:54:01;101479.59;;;7.42;100.00
32109;BME280;18624;50.042;8.436;2023-02-20T00:56:28;101559.44;;;7.94;100.00
32109;BME280;18624;50.042;8.436;2023-02-20T00:58:55;101567.25;;;7.96;100.00
32109;BME280;18624;50.042;8.436;2023-02-20T01:01:22;101561.00;;;7.95;100.00
32109;BME280;18624;50.042;8.436;2023-02-20T01:03:49;101564.91;;;7.94;100.00
32109;BME280;18624;50.042;8.436;2023-02-20T01:06:16;101563.34;;;7.93;100.00
32109;BME280;18624;50.042;8.436;2023-02-20T01:08:42;101561.38;;;7.90;100.00
32109;BME280;18624;50.042;8.436;2023-02-20T01:11:09;101557.44;;;7.87;100.00
32109;BME280;18624;50.042;8.436;2023-02-20T01:13:35;101550.81;;;7.85;100.00
32109;BME280;18624;50.042;8.436;2023-02-20T01:16:04;101553.94;;;7.83;100.00
32109;BME280;18624;50.042;8.436;2023-02-20T01:18:31;101546.91;;;7.82;100.00
32109;BME280;18624;50.042;8.436;2023-02-20T01:20:57;101535.19;;;7.82;100.00
32109;BME280;18624;50.042;8.436;2023-02-20T01:23:24;101546.53;;;7.84;100.00
32109;BME280;18624;50.042;8.436;2023-02-20T01:25:52;101527.34;;;7.73;100.00
32109;BME280;18624;50.042;8.436;2023-02-20T01:28:18;101499.16;;;7.55;100.00
32109;BME280;18624;50.042;8.436;2023-02-20T01:30:45;101550.03;;;7.84;100.00
32109;BME280;18624;50.042;8.436;2023-02-20T01:33:11;101545.38;;;7.85;100.00
32109;BME280;18624;50.042;8.436;2023-02-20T01:35:38;101540.28;;;7.83;100.00
32109;BME280;18624;50.042;8.436;2023-02-20T01:38:04;101550.41;;;7.79;100.00
32109;BME280;18624;50.042;8.436;2023-02-20T01:40:33;101541.03;;;7.77;100.00
32109;BME280;18624;50.042;8.436;2023-02-20T01:43:01;101543.72;;;7.73;100.00
32109;BME280;18624;50.042;8.436;2023-02-20T01:45:36;101540.22;;;7.73;100.00
32109;BME280;18624;50.042;8.436;2023-02-20T01:48:04;101522.22;;;7.61;100.00
32109;BME280;18624;50.042;8.436;2023-02-20T01:50:41;101527.31;;;7.66;100.00
32109;BME280;18624;50.042;8.436;2023-02-20T01:53:11;101533.91;;;7.65;100.00
32109;BME280;18624;50.042;8.436;2023-02-20T01:55:44;101530.03;;;7.63;100.00
32109;BME280;18624;50.042;8.436;2023-02-20T01:58:25;101529.59;;;7.60;100.00
32109;BME280;18624;50.042;8.436;2023-02-20T02:00:55;101528.03;;;7.59;100.00
32109;BME280;18624;50.042;8.436;2023-02-20T02:03:29;101517.88;;;7.56;100.00
32109;BME280;18624;50.042;8.436;2023-02-20T02:06:00;101511.25;;;7.54;100.00
32109;BME280;18624;50.042;8.436;2023-02-20T02:08:28;101508.91;;;7.52;100.00
32109;BME280;18624;50.042;8.436;2023-02-20T02:13:24;101497.97;;;7.49;100.00
32109;BME280;18624;50.042;8.436;2023-02-20T02:18:59;101454.16;;;7.24;100.00
32109;BME280;18624;50.042;8.436;2023-02-20T02:21:50;101481.97;;;7.44;100.00
32109;BME280;18624;50.042;8.436;2023-02-20T02:27:29;101485.06;;;7.39;100.00
32109;BME280;18624;50.042;8.436;2023-02-20T02:38:25;101492.81;;;7.36;100.00
32109;BME280;18624;50.042;8.436;2023-02-20T02:43:56;101493.97;;;7.35;100.00
32109;BME280;18624;50.042;8.436;2023-02-20T02:46:33;101496.28;;;7.33;100.00
32109;BME280;18624;50.042;8.436;2023-02-20T02:51:39;101483.81;;;7.32;100.00
32109;BME280;18624;50.042;8.436;2023-02-20T02:54:17;101485.75;;;7.32;100.00
32109;BME280;18624;50.042;8.436;2023-02-20T02:56:47;101475.25;;;7.30;100.00
32109;BME280;18624;50.042;8.436;2023-02-20T02:59:23;101488.09;;;7.30;100.00
32109;BME280;18624;50.042;8.436;2023-02-20T03:01:56;101487.28;;;7.29;100.00
32109;BME280;18624;50.042;8.436;2023-02-20T03:04:27;101471.75;;;7.30;100.00
32109;BME280;18624;50.042;8.436;2023-02-20T03:07:01;101441.59;;;7.08;100.00
32109;BME280;18624;50.042;8.436;2023-02-20T03:09:31;101451.78;;;7.19;100.00
32109;BME280;18624;50.042;8.436;2023-02-20T03:12:01;101479.56;;;7.35;100.00
32109;BME280;18624;50.042;8.436;2023-02-20T03:14:42;101484.25;;;7.34;100.00
32109;BME280;18624;50.042;8.436;2023-02-20T03:17:46;101485.41;;;7.37;100.00
32109;BME280;18624;50.042;8.436;2023-02-20T03:20:16;101485.03;;;7.35;100.00
32109;BME280;18624;50.042;8.436;2023-02-20T03:22:57;101477.94;;;7.27;100.00
32109;BME280;18624;50.042;8.436;2023-02-20T03:25:27;101490.06;;;7.33;100.00
32109;BME280;18624;50.042;8.436;2023-02-20T03:30:48;101458.31;;;7.03;100.00
32109;BME280;18624;50.042;8.436;2023-02-20T03:33:24;101493.88;;;7.25;100.00
32109;BME280;18624;50.042;8.436;2023-02-20T03:36:14;101491.16;;;7.25;100.00
32109;BME280;18624;50.042;8.436;2023-02-20T03:39:05;101465.69;;;7.06;100.00
32109;BME280;18624;50.042;8.436;2023-02-20T03:41:52;101492.28;;;7.20;100.00
32109;BME280;18624;50.042;8.436;2023-02-20T03:44:44;101487.22;;;7.19;100.00
32109;BME280;18624;50.042;8.436;2023-02-20T03:47:14;101483.31;;;7.16;100.00
32109;BME280;18624;50.042;8.436;2023-02-20T03:49:44;101495.78;;;7.17;100.00
32109;BME280;18624;50.042;8.436;2023-02-20T03:52:15;101489.53;;;7.13;100.00
32109;BME280;18624;50.042;8.436;2023-02-20T03:54:43;101498.88;;;7.12;100.00
32109;BME280;18624;50.042;8.436;2023-02-20T03:57:17;101496.91;;;7.09;100.00
32109;BME280;18624;50.042;8.436;2023-02-20T03:59:54;101490.22;;;7.03;100.00
32109;BME280;18624;50.042;8.436;2023-02-20T04:02:30;101502.28;;;6.98;100.00
32109;BME280;18624;50.042;8.436;2023-02-20T04:05:03;101501.03;;;6.92;100.00
32109;BME280;18624;50.042;8.436;2023-02-20T04:07:41;101496.34;;;6.89;100.00
32109;BME280;18624;50.042;8.436;2023-02-20T04:10:16;101494.75;;;6.84;100.00
32109;BME280;18624;50.042;8.436;2023-02-20T04:12:45;101484.97;;;6.83;100.00
32109;BME280;18624;50.042;8.436;2023-02-20T04:15:15;101462.28;;;6.69;100.00
32109;BME280;18624;50.042;8.436;2023-02-20T04:17:56;101474.50;;;6.85;100.00
32109;BME280;18624;50.042;8.436;2023-02-20T04:20:25;101479.19;;;6.85;100.00
32109;BME280;18624;50.042;8.436;2023-02-20T04:23:13;101474.81;;;6.77;100.00
32109;BME280;18624;50.042;8.436;2023-02-20T04:28:31;101474.50;;;6.85;100.00
32109;BME280;18624;50.042;8.436;2023-02-20T04:31:01;101463.53;;;6.78;100.00
32109;BME280;18624;50.042;8.436;2023-02-20T04:33:29;101484.63;;;6.85;100.00
32109;BME280;18624;50.042;8.436;2023-02-20T04:36:01;101490.81;;;6.82;100.00
32109;BME280;18624;50.042;8.436;2023-02-20T04:38:28;101451.25;;;6.54;100.00
32109;BME280;18624;50.042;8.436;2023-02-20T04:40:55;101482.59;;;6.78;100.00
32109;BME280;18624;50.042;8.436;2023-02-20T04:43:22;101487.28;;;6.78;100.00
32109;BME280;18624;50.042;8.436;2023-02-20T04:45:50;101496.22;;;6.78;100.00
32109;BME280;18624;50.042;8.436;2023-02-20T04:48:17;101478.31;;;6.77;100.00
32109;BME280;18624;50.042;8.436;2023-02-20T04:50:43;101482.56;;;6.75;100.00
32109;BME280;18624;50.042;8.436;2023-02-20T04:53:11;101473.22;;;6.72;100.00
32109;BME280;18624;50.042;8.436;2023-02-20T04:55:38;101447.72;;;6.50;100.00
32109;BME280;18624;50.042;8.436;2023-02-20T04:58:10;101473.56;;;6.67;100.00
32109;BME280;18624;50.042;8.436;2023-02-20T05:00:49;101475.03;;;6.57;100.00
32109;BME280;18624;50.042;8.436;2023-02-20T05:03:15;101476.59;;;6.58;100.00
32109;BME280;18624;50.042;8.436;2023-02-20T05:05:41;101480.84;;;6.56;100.00
32109;BME280;18624;50.042;8.436;2023-02-20T05:08:08;101465.91;;;6.43;100.00
32109;BME280;18624;50.042;8.436;2023-02-20T05:10:35;101481.16;;;6.51;100.00
32109;BME280;18624;50.042;8.436;2023-02-20T05:13:02;101468.63;;;6.43;100.00
32109;BME280;18624;50.042;8.436;2023-02-20T05:15:30;101486.53;;;6.44;100.00
32109;BME280;18624;50.042;8.436;2023-02-20T05:17:57;101486.88;;;6.39;100.00
32109;BME280;18624;50.042;8.436;2023-02-20T05:20:23;101480.59;;;6.34;100.00
32109;BME280;18624;50.042;8.436;2023-02-20T05:23:10;101470.81;;;6.30;100.00
32109;BME280;18624;50.042;8.436;2023-02-20T05:25:36;101477.06;;;6.30;100.00
32109;BME280;18624;50.042;8.436;2023-02-20T05:28:03;101483.25;;;6.27;100.00
32109;BME280;18624;50.042;8.436;2023-02-20T05:30:29;101483.63;;;6.26;100.00
32109;BME280;18624;50.042;8.436;2023-02-20T05:32:56;101485.56;;;6.25;100.00
32109;BME280;18624;50.042;8.436;2023-02-20T05:35:22;101487.53;;;6.28;100.00
32109;BME280;18624;50.042;8.436;2023-02-20T05:37:48;101484.00;;;6.24;100.00
32109;BME280;18624;50.042;8.436;2023-02-20T05:40:15;101481.22;;;6.21;100.00
32109;BME280;18624;50.042;8.436;2023-02-20T05:42:41;101481.59;;;6.19;100.00
32109;BME280;18624;50.042;8.436;2023-02-20T05:45:08;101491.72;;;6.19;100.00
32109;BME280;18624;50.042;8.436;2023-02-20T05:47:37;101441.53;;;5.86;100.00
32109;BME280;18624;50.042;8.436;2023-02-20T05:50:04;101488.53;;;6.13;100.00
32109;BME280;18624;50.042;8.436;2023-02-20T05:52:33;101470.28;;;6.14;100.00
32109;BME280;18624;50.042;8.436;2023-02-20T05:54:59;101460.13;;;6.11;100.00
32109;BME280;18624;50.042;8.436;2023-02-20T05:57:26;101455.00;;;6.05;100.00
32109;BME280;18624;50.042;8.436;2023-02-20T05:59:52;101455.41;;;6.07;100.00
32109;BME280;18624;50.042;8.436;2023-02-20T06:02:19;101428.75;;;5.90;100.00
32109;BME280;18624;50.042;8.436;2023-02-20T06:04:45;101466.66;;;6.06;100.00
32109;BME280;18624;50.042;8.436;2023-02-20T06:07:12;101460.06;;;6.07;100.00
32109;BME280;18624;50.042;8.436;2023-02-20T06:09:42;101460.06;;;6.03;100.00
32109;BME280;18624;50.042;8.436;2023-02-20T06:12:09;101431.78;;;5.85;100.00
32109;BME280;18624;50.042;8.436;2023-02-20T06:14:36;101453.72;;;5.96;100.00
32109;BME280;18624;50.042;8.436;2023-02-20T06:17:02;101457.81;;;5.82;100.00
32109;BME280;18624;50.042;8.436;2023-02-20T06:19:29;101458.47;;;5.76;100.00
32109;BME280;18624;50.042;8.436;2023-02-20T06:21:55;101369.94;;;5.18;100.00
32109;BME280;18624;50.042;8.436;2023-02-20T06:24:24;101458.09;;;5.74;100.00
32109;BME280;18624;50.042;8.436;2023-02-20T06:26:51;101460.38;;;5.72;100.00
32109;BME280;18624;50.042;8.436;2023-02-20T06:29:18;101452.63;;;5.74;100.00
32109;BME280;18624;50.042;8.436;2023-02-20T06:31:45;101458.13;;;5.77;100.00
32109;BME280;18624;50.042;8.436;2023-02-20T06:34:12;101393.44;;;5.33;100.00
32109;BME280;18624;50.042;8.436;2023-02-20T06:36:40;101420.31;;;5.39;100.00
32109;BME280;18624;50.042;8.436;2023-02-20T06:39:08;101475.50;;;5.69;100.00
32109;BME280;18624;50.042;8.436;2023-02-20T06:41:35;101465.31;;;5.63;100.00
32109;BME280;18624;50.042;8.436;2023-02-20T06:44:01;101476.19;;;5.63;100.00
32109;BME280;18624;50.042;8.436;2023-02-20T06:46:28;101478.50;;;5.61;100.00
32109;BME280;18624;50.042;8.436;2023-02-20T06:48:56;101474.22;;;5.59;100.00
32109;BME280;18624;50.042;8.436;2023-02-20T06:51:31;101471.13;;;5.61;100.00
32109;BME280;18624;50.042;8.436;2023-02-20T06:53:58;101476.94;;;5.59;100.00
32109;BME280;18624;50.042;8.436;2023-02-20T06:56:27;101478.88;;;5.59;100.00
32109;BME280;18624;50.042;8.436;2023-02-20T06:58:55;101470.72;;;5.59;100.00
32109;BME280;18624;50.042;8.436;2023-02-20T07:01:24;101473.78;;;5.57;100.00
32109;BME280;18624;50.042;8.436;2023-02-20T07:03:52;101479.66;;;5.59;100.00
32109;BME280;18624;50.042;8.436;2023-02-20T07:06:21;101478.88;;;5.59;100.00
32109;BME280;18624;50.042;8.436;2023-02-20T07:08:48;101450.28;;;5.42;100.00
32109;BME280;18624;50.042;8.436;2023-02-20T07:11:16;101477.78;;;5.64;100.00
32109;BME280;18624;50.042;8.436;2023-02-20T07:13:43;101475.06;;;5.67;100.00
32109;BME280;18624;50.042;8.436;2023-02-20T07:16:09;101482.56;;;5.74;100.00
32109;BME280;18624;50.042;8.436;2023-02-20T07:18:36;101475.97;;;5.75;100.00
32109;BME280;18624;50.042;8.436;2023-02-20T07:21:03;101474.03;;;5.75;100.00
32109;BME280;18624;50.042;8.436;2023-02-20T07:23:30;101486.13;;;5.78;100.00
32109;BME280;18624;50.042;8.436;2023-02-20T07:25:56;101470.97;;;5.80;100.00
32109;BME280;18624;50.042;8.436;2023-02-20T07:28:23;101475.28;;;5.81;100.00
32109;BME280;18624;50.042;8.436;2023-02-20T07:30:49;101472.13;;;5.79;100.00
32109;BME280;18624;50.042;8.436;2023-02-20T07:33:17;101475.69;;;5.83;100.00
32109;BME280;18624;50.042;8.436;2023-02-20T07:35:44;101469.88;;;5.85;100.00
32109;BME280;18624;50.042;8.436;2023-02-20T07:38:11;101452.81;;;5.88;100.00
32109;BME280;18624;50.042;8.436;2023-02-20T07:40:37;101461.19;;;6.02;100.00
32109;BME280;18624;50.042;8.436;2023-02-20T07:43:05;101452.78;;;6.15;100.00
32109;BME280;18624;50.042;8.436;2023-02-20T07:45:36;101394.44;;;5.82;100.00
32109;BME280;18624;50.042;8.436;2023-02-20T07:48:04;101382.03;;;5.84;100.00
32109;BME280;18624;50.042;8.436;2023-02-20T07:50:30;101455.06;;;6.46;100.00
32109;BME280;18624;50.042;8.436;2023-02-20T07:52:57;101452.81;;;6.55;100.00
32109;BME280;18624;50.042;8.436;2023-02-20T07:55:23;101442.81;;;6.67;100.00
32109;BME280;18624;50.042;8.436;2023-02-20T07:57:50;101442.47;;;6.75;100.00
32109;BME280;18624;50.042;8.436;2023-02-20T08:00:20;101446.84;;;6.83;100.00
32109;BME280;18624;50.042;8.436;2023-02-20T08:02:47;101367.03;;;6.35;100.00
32109;BME280;18624;50.042;8.436;2023-02-20T08:05:13;101441.84;;;6.89;100.00
32109;BME280;18624;50.042;8.436;2023-02-20T08:07:47;101443.44;;;6.94;100.00
32109;BME280;18624;50.042;8.436;2023-02-20T08:10:15;101436.38;;;6.93;100.00
32109;BME280;18624;50.042;8.436;2023-02-20T08:12:42;101436.47;;;7.00;100.00
32109;BME280;18624;50.042;8.436;2023-02-20T08:15:09;101385.72;;;6.81;100.00
32109;BME280;18624;50.042;8.436;2023-02-20T08:17:38;101385.34;;;6.86;100.00
32109;BME280;18624;50.042;8.436;2023-02-20T08:20:14;101419.03;;;7.15;100.00
32109;BME280;18624;50.042;8.436;2023-02-20T08:22:43;101417.53;;;7.25;100.00
32109;BME280;18624;50.042;8.436;2023-02-20T08:25:09;101412.13;;;7.32;100.00
32109;BME280;18624;50.042;8.436;2023-02-20T08:27:41;101411.41;;;7.42;100.00
32109;BME280;18624;50.042;8.436;2023-02-20T08:30:11;101402.84;;;7.44;100.00
32109;BME280;18624;50.042;8.436;2023-02-20T08:32:38;101395.09;;;7.49;100.00
32109;BME280;18624;50.042;8.436;2023-02-20T08:35:05;101395.88;;;7.53;100.00
32109;BME280;18624;50.042;8.436;2023-02-20T08:37:31;101397.06;;;7.56;100.00
32109;BME280;18624;50.042;8.436;2023-02-20T08:39:58;101393.97;;;7.61;100.00
32109;BME280;18624;50.042;8.436;2023-02-20T08:42:24;101364.25;;;7.42;100.00
32109;BME280;18624;50.042;8.436;2023-02-20T08:44:51;101395.97;;;7.75;100.00
32109;BME280;18624;50.042;8.436;2023-02-20T08:47:20;101390.53;;;7.82;100.00
32109;BME280;18624;50.042;8.436;2023-02-20T08:49:46;101393.66;;;7.87;100.00
32109;BME280;18624;50.042;8.436;2023-02-20T08:52:14;101398.38;;;7.94;100.00
32109;BME280;18624;50.042;8.436;2023-02-20T08:54:48;101387.09;;;8.03;100.00
32109;BME280;18624;50.042;8.436;2023-02-20T08:57:16;101397.25;;;8.13;100.00
32109;BME280;18624;50.042;8.436;2023-02-20T08:59:43;101388.69;;;8.18;100.00
32109;BME280;18624;50.042;8.436;2023-02-20T09:02:21;101405.09;;;8.25;100.00
32109;BME280;18624;50.042;8.436;2023-02-20T09:04:49;101396.53;;;8.34;100.00
32109;BME280;18624;50.042;8.436;2023-02-20T09:07:16;101395.75;;;8.37;100.00
32109;BME280;18624;50.042;8.436;2023-02-20T09:09:42;101391.88;;;8.42;100.00
32109;BME280;18624;50.042;8.436;2023-02-20T09:12:09;101392.28;;;8.47;100.00
32109;BME280;18624;50.042;8.436;2023-02-20T09:14:35;101352.03;;;8.30;100.00
32109;BME280;18624;50.042;8.436;2023-02-20T09:17:02;101400.06;;;8.59;100.00
32109;BME280;18624;50.042;8.436;2023-02-20T09:19:30;101397.34;;;8.67;100.00
32109;BME280;18624;50.042;8.436;2023-02-20T09:21:57;101396.19;;;8.71;100.00
32109;BME280;18624;50.042;8.436;2023-02-20T09:24:23;101396.19;;;8.78;100.00
32109;BME280;18624;50.042;8.436;2023-02-20T09:26:50;101373.53;;;8.67;100.00
32109;BME280;18624;50.042;8.436;2023-02-20T09:29:16;101402.44;;;8.86;100.00
32109;BME280;18624;50.042;8.436;2023-02-20T09:31:43;101404.38;;;8.96;100.00
32109;BME280;18624;50.042;8.436;2023-02-20T09:34:10;101398.91;;;9.03;100.00
32109;BME280;18624;50.042;8.436;2023-02-20T09:36:36;101339.19;;;8.70;100.00
32109;BME280;18624;50.042;8.436;2023-02-20T09:39:02;101400.44;;;9.15;100.00
32109;BME280;18624;50.042;8.436;2023-02-20T09:41:41;101400.06;;;9.13;100.00
32109;BME280;18624;50.042;8.436;2023-02-20T09:44:27;101405.91;;;9.19;100.00
32109;BME280;18624;50.042;8.436;2023-02-20T09:46:55;101401.59;;;9.18;100.00
32109;BME280;18624;50.042;8.436;2023-02-20T09:49:32;101393.81;;;9.20;100.00
32109;BME280;18624;50.042;8.436;2023-02-20T09:52:04;101396.13;;;9.21;100.00
32109;BME280;18624;50.042;8.436;2023-02-20T09:54:34;101391.06;;;9.23;100.00
32109;BME280;18624;50.042;8.436;2023-02-20T09:57:08;101377.78;;;9.15;100.00
32109;BME280;18624;50.042;8.436;2023-02-20T09:59:40;101402.38;;;9.32;100.00
32109;BME280;18624;50.042;8.436;2023-02-20T10:02:18;101395.31;;;9.38;100.00
32109;BME280;18624;50.042;8.436;2023-02-20T10:04:53;101396.50;;;9.41;100.00
32109;BME280;18624;50.042;8.436;2023-02-20T10:07:30;101398.41;;;9.44;100.00
32109;BME280;18624;50.042;8.436;2023-02-20T10:09:58;101401.16;;;9.44;100.00
32109;BME280;18624;50.042;8.436;2023-02-20T10:12:40;101407.03;;;9.46;100.00
32109;BME280;18624;50.042;8.436;2023-02-20T10:18:53;101396.44;;;9.52;100.00
32109;BME280;18624;50.042;8.436;2023-02-20T10:21:07;101394.84;;;9.58;100.00
32109;BME280;18624;50.042;8.436;2023-02-20T10:23:45;101383.13;;;9.57;100.00
32109;BME280;18624;50.042;8.436;2023-02-20T10:26:35;101374.50;;;9.66;100.00
32109;BME280;18624;50.042;8.436;2023-02-20T10:29:32;101374.06;;;9.71;100.00
32109;BME280;18624;50.042;8.436;2023-02-20T10:32:03;101376.81;;;9.75;100.00
32109;BME280;18624;50.042;8.436;2023-02-20T10:34:40;101363.88;;;9.75;100.00
32109;BME280;18624;50.042;8.436;2023-02-20T10:37:13;101365.44;;;9.80;100.00
32109;BME280;18624;50.042;8.436;2023-02-20T10:39:48;101372.84;;;9.83;100.00
32109;BME280;18624;50.042;8.436;2023-02-20T10:42:21;101326.38;;;9.69;100.00
32109;BME280;18624;50.042;8.436;2023-02-20T10:44:58;101348.53;;;9.92;100.00
32109;BME280;18624;50.042;8.436;2023-02-20T10:47:56;101347.75;;;9.95;100.00
32109;BME280;18624;50.042;8.436;2023-02-20T10:50:28;101353.94;;;10.03;99.93
32109;BME280;18624;50.042;8.436;2023-02-20T10:53:10;101321.94;;;9.89;98.39
32109;BME280;18624;50.042;8.436;2023-02-20T10:55:44;101337.41;;;10.17;97.84
32109;BME280;18624;50.042;8.436;2023-02-20T10:58:25;101331.16;;;10.17;96.10
32109;BME280;18624;50.042;8.436;2023-02-20T11:01:02;101328.38;;;10.24;95.73
32109;BME280;18624;50.042;8.436;2023-02-20T11:06:02;101317.00;;;10.32;94.59
32109;BME280;18624;50.042;8.436;2023-02-20T11:08:29;101324.78;;;10.37;93.79
32109;BME280;18624;50.042;8.436;2023-02-20T11:11:05;101309.09;;;10.42;92.74
32109;BME280;18624;50.042;8.436;2023-02-20T11:13:44;101311.81;;;10.45;91.17
32109;BME280;18624;50.042;8.436;2023-02-20T11:16:20;101309.44;;;10.47;91.43
32109;BME280;18624;50.042;8.436;2023-02-20T11:18:55;101298.84;;;10.49;92.76
32109;BME280;18624;50.042;8.436;2023-02-20T11:21:38;101297.97;;;10.59;91.64
32109;BME280;18624;50.042;8.436;2023-02-20T11:24:26;101299.50;;;10.64;91.20
32109;BME280;18624;50.042;8.436;2023-02-20T11:27:05;101299.47;;;10.68;87.56
32109;BME280;18624;50.042;8.436;2023-02-20T11:29:36;101283.38;;;10.70;86.83
32109;BME280;18624;50.042;8.436;2023-02-20T11:32:37;101283.38;;;10.70;89.03
32109;BME280;18624;50.042;8.436;2023-02-20T11:35:21;101275.88;;;10.74;88.30
32109;BME280;18624;50.042;8.436;2023-02-20T11:38:15;101283.63;;;10.82;85.98
32109;BME280;18624;50.042;8.436;2023-02-20T11:40:37;101247.69;;;10.73;85.92
32109;BME280;18624;50.042;8.436;2023-02-20T11:45:39;101253.63;;;11.02;85.74
32109;BME280;18624;50.042;8.436;2023-02-20T11:48:18;101254.75;;;11.08;84.16
32109;BME280;18624;50.042;8.436;2023-02-20T11:53:21;101245.28;;;11.13;83.61
32109;BME280;18624;50.042;8.436;2023-02-20T11:56:06;101246.41;;;11.15;83.74
32109;BME280;18624;50.042;8.436;2023-02-20T11:58:33;101218.69;;;11.06;81.62
32109;BME280;18624;50.042;8.436;2023-02-20T12:00:59;101235.34;;;11.23;81.39
32109;BME280;18624;50.042;8.436;2023-02-20T12:03:30;101233.75;;;11.25;80.55
32109;BME280;18624;50.042;8.436;2023-02-20T12:06:03;101230.59;;;11.27;79.50
32109;BME280;18624;50.042;8.436;2023-02-20T12:08:52;101219.19;;;11.28;81.34
32109;BME280;18624;50.042;8.436;2023-02-20T12:11:20;101214.94;;;11.24;80.94
32109;BME280;18624;50.042;8.436;2023-02-20T12:13:49;101213.41;;;11.23;81.00
32109;BME280;18624;50.042;8.436;2023-02-20T12:22:02;101203.88;;;11.31;81.83
32109;BME280;18624;50.042;8.436;2023-02-20T12:27:33;101196.38;;;11.35;79.68
32109;BME280;18624;50.042;8.436;2023-02-20T12:36:05;101202.94;;;11.41;77.52
32109;BME280;18624;50.042;8.436;2023-02-20T12:38:45;101207.63;;;11.44;76.07
32109;BME280;18624;50.042;8.436;2023-02-20T12:41:30;101195.44;;;11.45;75.29
32109;BME280;18624;50.042;8.436;2023-02-20T12:44:36;101192.69;;;11.45;75.25
32109;BME280;18624;50.042;8.436;2023-02-20T12:53:12;101176.22;;;11.45;73.57
32109;BME280;18624;50.042;8.436;2023-02-20T12:56:01;101107.88;;;11.00;72.82
32109;BME280;18624;50.042;8.436;2023-02-20T12:58:52;101184.00;;;11.50;72.58
32109;BME280;18624;50.042;8.436;2023-02-20T13:01:22;101178.03;;;11.55;71.68
32109;BME280;18624;50.042;8.436;2023-02-20T13:04:16;101167.44;;;11.57;72.07
32109;BME280;18624;50.042;8.436;2023-02-20T13:06:55;101178.75;;;11.59;70.35
32109;BME280;18624;50.042;8.436;2023-02-20T13:09:36;101164.25;;;11.59;71.49
32109;BME280;18624;50.042;8.436;2023-02-20T13:12:10;101150.16;;;11.57;71.14
32109;BME280;18624;50.042;8.436;2023-02-20T13:22:36;101078.66;;;11.40;68.37
32109;BME280;18624;50.042;8.436;2023-02-20T13:28:01;101117.00;;;11.71;68.14
32109;BME280;18624;50.042;8.436;2023-02-20T13:30:32;101060.31;;;11.34;69.03
32109;BME280;18624;50.042;8.436;2023-02-20T13:33:19;101107.59;;;11.69;67.79
32109;BME280;18624;50.042;8.436;2023-02-20T13:35:56;101097.34;;;11.73;67.93
32109;BME280;18624;50.042;8.436;2023-02-20T13:38:24;101100.44;;;11.75;67.86
32109;BME280;18624;50.042;8.436;2023-02-20T13:45:48;101078.16;;;11.69;71.57
32109;BME280;18624;50.042;8.436;2023-02-20T13:48:37;101076.13;;;11.73;68.44
32109;BME280;18624;50.042;8.436;2023-02-20T13:53:50;101070.94;;;11.79;67.61
32109;BME280;18624;50.042;8.436;2023-02-20T13:56:19;101067.78;;;11.80;68.28
32109;BME280;18624;50.042;8.436;2023-02-20T13:58:48;101000.19;;;11.43;66.34
32109;BME280;18624;50.042;8.436;2023-02-20T14:01:15;101056.38;;;11.82;66.15
32109;BME280;18624;50.042;8.436;2023-02-20T14:03:41;101050.09;;;11.81;66.50
32109;BME280;18624;50.042;8.436;2023-02-20T14:06:11;101045.38;;;11.82;68.52
32109;BME280;18624;50.042;8.436;2023-02-20T14:08:41;101027.47;;;11.74;68.77
32109;BME280;18624;50.042;8.436;2023-02-20T14:11:31;101035.91;;;11.86;68.69
32109;BME280;18624;50.042;8.436;2023-02-20T14:14:08;101032.41;;;11.86;69.50
32109;BME280;18624;50.042;8.436;2023-02-20T14:16:39;101007.50;;;11.73;69.75
32109;BME280;18624;50.042;8.436;2023-02-20T14:19:21;101026.84;;;11.89;71.05
32109;BME280;18624;50.042;8.436;2023-02-20T14:21:49;101018.94;;;11.91;70.02
32109;BME280;18624;50.042;8.436;2023-02-20T14:24:34;101009.59;;;11.89;70.38
32109;BME280;18624;50.042;8.436;2023-02-20T14:27:00;101008.72;;;11.92;69.91
32109;BME280;18624;50.042;8.436;2023-02-20T14:29:29;100988.38;;;11.89;70.22
32109;BME280;18624;50.042;8.436;2023-02-20T14:31:58;100995.00;;;11.92;70.38